Accueil
METAR-TAF:

METAR-TAF

Aéroports :

Base aérienne 120 Cazaux

Cazaux, France

latitude: 44-32N, longitude: 001-08W, altitude: 25 m

Observation

Le bulletin a été fait il y a 51 minutes, à 22:30 UTC
Vent 2 kt de nord
Température 5°C
Humidité 93%
Pression 1032 hPa
Visibilité 10 km ou plus
pas de nuages en-dessous de 1500 mètres et pas de cumulonimbus.

METAR: LFBC 212230Z AUTO 35002KT CAVOK 05/04 Q1032

Heure: 00:21 (23:21 UTC)

Prévision

Le bulletin a été fait il y a 15 heures et 21 minutes, à 08:00 UTC
Prévision valable du 21 à 09 UTC au 22 à 09 UTC
Vent 3 kt de est/nord-est
Visibilité 10 km ou plus
Quelques nuages à une hauteur de 3500 ft
Temporairement
du 22 à 00 UTC au 22 à 08 UTC
Visibilité: 3000 m
brume

TAF: LFBC 210800Z 2109/2209 07003KT 9999 FEW035 TEMPO 2200/2208 3000 BR

Observations et prévisions météorologiques de plus de 4000 aéroports (messages METAR et TAF).

Les stations disponibles sont représentées par des disques jaunes et rouges sur la carte.

Passer la souris dessus pour voir le nom de la station.

Cliquer dessus pour voir les observations et prévisions météorologiques.

Pour changer de carte: cliquez sur les boutons verts avec une croix noire pour zoomer, sur le bouton vert avec un tiret pour effectuer un zoom arrière, ou sur les flèches vertes pour les cartes adjacentes.


METAR-TAF: